createdAt,value
2022-07-31T00:00:55.912Z,101074.91
2022-07-31T00:03:23.832Z,101074.91
2022-07-31T00:05:53.272Z,101069.50
2022-07-31T00:08:21.175Z,101064.13
2022-07-31T00:10:49.135Z,101061.41
2022-07-31T00:13:17.107Z,101059.84
2022-07-31T00:15:45.708Z,101068.66
2022-07-31T00:18:13.828Z,101057.00
2022-07-31T00:20:42.104Z,101058.72
2022-07-31T00:23:12.986Z,101055.31
2022-07-31T00:25:46.963Z,101057.00
2022-07-31T00:28:15.026Z,101066.09
2022-07-31T00:30:44.626Z,100992.53
2022-07-31T00:33:12.485Z,101057.00
2022-07-31T00:35:40.599Z,101055.31
2022-07-31T00:38:26.315Z,101052.63
2022-07-31T00:40:56.986Z,101049.94
2022-07-31T00:43:27.431Z,101051.63
2022-07-31T00:45:59.610Z,101046.22
2022-07-31T00:48:28.042Z,101024.16
2022-07-31T00:50:56.251Z,101041.16
2022-07-31T00:53:24.259Z,101051.63
2022-07-31T00:55:52.414Z,101053.34
2022-07-31T00:58:22.222Z,101055.03
2022-07-31T01:00:50.618Z,101052.19
2022-07-31T01:03:19.182Z,101049.63
2022-07-31T01:05:47.688Z,101048.63
2022-07-31T01:08:15.671Z,101046.22
2022-07-31T01:10:53.777Z,101042.56
2022-07-31T01:13:32.179Z,101040.03
2022-07-31T01:16:02.468Z,101032.59
2022-07-31T01:18:34.309Z,101029.53
2022-07-31T01:21:06.888Z,101035.47
2022-07-31T01:23:58.019Z,101037.16
2022-07-31T01:26:37.946Z,101035.47
2022-07-31T01:29:17.224Z,101035.47
2022-07-31T01:31:47.708Z,101035.47
2022-07-31T01:34:24.793Z,101039.88
2022-07-31T01:37:01.911Z,101028.38
2022-07-31T01:39:34.279Z,101032.75
2022-07-31T01:42:05.902Z,101027.38
2022-07-31T01:44:41.931Z,101030.06
2022-07-31T01:47:11.232Z,101027.38
2022-07-31T01:49:41.186Z,101023.00
2022-07-31T01:52:09.914Z,101004.31
2022-07-31T01:54:39.066Z,101027.22
2022-07-31T01:57:08.942Z,101028.09
2022-07-31T01:59:42.533Z,101011.66
2022-07-31T02:02:13.638Z,101021.97
2022-07-31T02:04:42.106Z,101030.06
2022-07-31T02:07:11.313Z,101022.69
2022-07-31T02:09:58.309Z,101025.53
2022-07-31T02:12:33.869Z,101024.69
2022-07-31T02:15:05.619Z,101015.91
2022-07-31T02:17:34.856Z,101017.59
2022-07-31T02:20:03.927Z,101009.53
2022-07-31T02:22:32.086Z,101016.59
2022-07-31T02:25:00.188Z,101003.13
2022-07-31T02:27:55.409Z,101014.75
2022-07-31T02:30:19.867Z,101002.59
2022-07-31T02:32:49.458Z,101009.38
2022-07-31T02:35:19.023Z,101004.13
2022-07-31T02:37:50.127Z,100999.75
2022-07-31T02:40:20.218Z,100998.03
2022-07-31T02:42:49.418Z,101001.44
2022-07-31T02:45:17.948Z,101005.81
2022-07-31T02:47:48.575Z,100958.72
2022-07-31T02:50:20.452Z,100986.97
2022-07-31T02:52:49.054Z,100991.53
2022-07-31T02:55:18.589Z,100990.66
2022-07-31T02:57:48.668Z,100992.34
2022-07-31T03:00:23.104Z,100985.28
2022-07-31T03:02:53.636Z,100984.25
2022-07-31T03:05:22.287Z,100981.88
2022-07-31T03:07:50.797Z,100986.97
2022-07-31T03:10:18.888Z,100983.28
2022-07-31T03:12:50.206Z,100985.13
2022-07-31T03:15:20.218Z,100983.28
2022-07-31T03:17:50.435Z,100977.91
2022-07-31T03:20:20.274Z,100973.63
2022-07-31T03:22:48.474Z,100983.28
2022-07-31T03:25:21.213Z,100984.09
2022-07-31T03:27:52.687Z,100983.28
2022-07-31T03:30:26.263Z,100983.28
2022-07-31T03:32:54.593Z,100983.28
2022-07-31T03:35:24.573Z,100980.59
2022-07-31T03:37:54.242Z,100977.91
2022-07-31T03:40:22.372Z,100967.44
2022-07-31T03:42:51.267Z,100979.88
2022-07-31T03:45:22.315Z,100978.19
2022-07-31T03:47:50.732Z,100969.56
2022-07-31T03:50:19.135Z,100979.88
2022-07-31T03:52:49.068Z,100967.44
2022-07-31T03:55:17.610Z,100966.56
2022-07-31T03:57:47.665Z,100964.88
2022-07-31T04:00:17.931Z,100967.13
2022-07-31T04:02:46.784Z,100972.50
2022-07-31T04:05:15.316Z,100969.09
2022-07-31T04:07:43.626Z,100966.25
2022-07-31T04:10:13.758Z,100967.13
2022-07-31T04:12:42.160Z,100970.78
2022-07-31T04:15:10.858Z,100971.66
2022-07-31T04:17:38.932Z,100961.03
2022-07-31T04:20:08.534Z,100969.09
2022-07-31T04:22:36.466Z,100963.72
2022-07-31T04:25:05.293Z,100963.72
2022-07-31T04:27:48.290Z,100968.09
2022-07-31T04:30:17.133Z,100964.56
2022-07-31T04:32:45.471Z,100961.19
2022-07-31T04:35:14.028Z,100963.72
2022-07-31T04:37:43.218Z,100952.94
2022-07-31T04:40:16.598Z,100965.41
2022-07-31T04:42:45.934Z,100954.94
2022-07-31T04:45:13.923Z,100961.72
2022-07-31T04:47:41.845Z,100961.72
2022-07-31T04:50:10.708Z,100958.03
2022-07-31T04:52:38.746Z,100951.09
2022-07-31T04:55:07.805Z,100963.72
2022-07-31T04:57:37.481Z,100962.56
2022-07-31T05:00:08.713Z,100950.97
2022-07-31T05:02:36.887Z,100956.34
2022-07-31T05:05:05.217Z,100961.72
2022-07-31T05:07:34.655Z,100953.50
2022-07-31T05:10:02.941Z,100958.03
2022-07-31T05:12:30.971Z,100949.94
2022-07-31T05:14:58.870Z,100950.81
2022-07-31T05:17:28.164Z,100956.34
2022-07-31T05:19:56.186Z,100955.47
2022-07-31T05:22:24.424Z,100952.38
2022-07-31T05:24:52.561Z,100961.88
2022-07-31T05:27:20.782Z,100961.72
2022-07-31T05:29:49.133Z,100963.41
2022-07-31T05:32:17.487Z,100964.28
2022-07-31T05:34:46.937Z,100966.09
2022-07-31T05:37:15.150Z,100966.09
2022-07-31T05:39:43.199Z,100964.28
2022-07-31T05:42:12.426Z,100972.22
2022-07-31T05:44:40.343Z,100971.34
2022-07-31T05:47:08.978Z,100967.13
2022-07-31T05:49:37.031Z,100973.88
2022-07-31T05:52:07.098Z,100970.50
2022-07-31T05:54:35.369Z,100972.22
2022-07-31T05:57:03.637Z,100966.81
2022-07-31T05:59:33.031Z,100972.22
2022-07-31T06:02:02.460Z,100963.13
2022-07-31T06:04:30.778Z,100965.97
2022-07-31T06:06:58.731Z,100966.09
2022-07-31T06:09:28.210Z,100971.34
2022-07-31T06:11:56.290Z,100961.72
2022-07-31T06:14:24.375Z,100973.03
2022-07-31T06:16:53.348Z,100972.22
2022-07-31T06:19:24.337Z,100962.25
2022-07-31T06:21:53.810Z,100966.81
2022-07-31T06:24:22.423Z,100966.81
2022-07-31T06:26:52.110Z,100963.13
2022-07-31T06:29:23.817Z,100968.50
2022-07-31T06:32:10.355Z,100963.13
2022-07-31T06:34:38.238Z,100954.31
2022-07-31T06:37:06.451Z,100952.34
2022-07-31T06:39:55.543Z,100949.94
2022-07-31T06:42:25.247Z,100952.63
2022-07-31T06:44:53.713Z,100953.34
2022-07-31T06:47:23.527Z,100956.88
2022-07-31T06:49:52.126Z,100952.34
2022-07-31T06:52:21.377Z,100956.88
2022-07-31T06:54:49.447Z,100949.78
2022-07-31T06:57:17.611Z,100948.94
2022-07-31T06:59:47.095Z,100948.63
2022-07-31T07:02:15.253Z,100947.97
2022-07-31T07:05:04.924Z,100944.09
2022-07-31T07:07:31.728Z,100943.25
2022-07-31T07:10:00.263Z,100943.25
2022-07-31T07:12:28.443Z,100936.16
2022-07-31T07:14:58.161Z,100932.47
2022-07-31T07:17:29.188Z,100925.69
2022-07-31T07:19:58.148Z,100925.38
2022-07-31T07:22:31.106Z,100925.38
2022-07-31T07:25:00.500Z,100928.94
2022-07-31T07:27:28.851Z,100928.78
2022-07-31T07:29:58.582Z,100931.63
2022-07-31T07:32:26.602Z,100930.63
2022-07-31T07:34:59.984Z,100914.63
2022-07-31T07:37:29.502Z,100927.06
2022-07-31T07:39:58.328Z,100916.28
2022-07-31T07:42:32.319Z,100910.91
2022-07-31T07:45:02.791Z,100888.34
2022-07-31T07:48:04.900Z,100912.94
2022-07-31T07:50:29.502Z,100909.22
2022-07-31T07:52:58.002Z,100906.38
2022-07-31T07:55:26.498Z,100877.56
2022-07-31T07:57:57.574Z,100905.81
2022-07-31T08:00:27.084Z,100905.53
2022-07-31T08:03:46.649Z,100908.91
2022-07-31T08:05:43.661Z,100908.91
2022-07-31T08:08:11.866Z,100904.53
2022-07-31T08:10:41.229Z,100907.22
2022-07-31T08:13:09.971Z,100905.22
2022-07-31T08:15:39.742Z,100909.78
2022-07-31T08:18:08.246Z,100907.91
2022-07-31T08:20:38.777Z,100904.13
2022-07-31T08:23:07.012Z,100914.31
2022-07-31T08:25:35.847Z,100913.28
2022-07-31T08:28:04.566Z,100909.78
2022-07-31T08:30:34.677Z,100908.91
2022-07-31T08:33:04.429Z,100910.59
2022-07-31T08:35:32.945Z,100912.31
2022-07-31T08:38:03.257Z,100916.00
2022-07-31T08:40:42.783Z,100915.16
2022-07-31T08:43:25.182Z,100907.22
2022-07-31T08:46:02.893Z,100907.22
2022-07-31T08:48:35.318Z,100902.66
2022-07-31T08:51:04.913Z,100903.53
2022-07-31T08:53:37.816Z,100903.53
2022-07-31T08:56:07.379Z,100888.69
2022-07-31T08:58:39.396Z,100898.13
2022-07-31T09:01:09.239Z,100892.03
2022-07-31T09:03:38.710Z,100892.75
2022-07-31T09:06:07.703Z,100901.69
2022-07-31T09:08:37.094Z,100892.75
2022-07-31T09:11:06.023Z,100903.53
2022-07-31T09:13:35.510Z,100899.81
2022-07-31T09:16:04.648Z,100903.53
2022-07-31T09:18:35.404Z,100903.53
2022-07-31T09:21:08.463Z,100910.59
2022-07-31T09:23:45.652Z,100909.78
2022-07-31T09:26:13.631Z,100916.00
2022-07-31T09:28:44.368Z,100909.78
2022-07-31T09:31:14.120Z,100903.53
2022-07-31T09:33:46.266Z,100905.22
2022-07-31T09:36:16.178Z,100915.16
2022-07-31T09:38:44.923Z,100910.59
2022-07-31T09:41:16.628Z,100910.59
2022-07-31T09:44:10.382Z,100905.22
2022-07-31T09:46:42.237Z,100903.53
2022-07-31T09:49:10.986Z,100907.22
2022-07-31T09:51:42.022Z,100875.03
2022-07-31T09:54:21.175Z,100908.06
2022-07-31T09:56:50.354Z,100905.81
2022-07-31T09:59:18.975Z,100913.28
2022-07-31T10:01:49.010Z,100908.91
2022-07-31T10:04:18.242Z,100908.91
2022-07-31T10:06:50.629Z,100895.97
2022-07-31T10:09:20.788Z,100916.00
2022-07-31T10:11:51.165Z,100916.00
2022-07-31T10:14:28.278Z,100922.22
2022-07-31T10:17:00.195Z,100914.31
2022-07-31T10:19:33.036Z,100922.22
2022-07-31T10:22:05.801Z,100925.09
2022-07-31T10:24:35.363Z,100924.06
2022-07-31T10:27:08.068Z,100913.44
2022-07-31T10:29:39.430Z,100908.91
2022-07-31T10:32:08.566Z,100908.06
2022-07-31T10:34:37.366Z,100916.00
2022-07-31T10:37:13.126Z,100906.28
2022-07-31T10:39:50.765Z,100918.00
2022-07-31T10:42:30.151Z,100908.91
2022-07-31T10:45:07.008Z,100907.22
2022-07-31T10:47:35.114Z,100908.91
2022-07-31T10:50:04.536Z,100907.22
2022-07-31T10:52:35.331Z,100895.19
2022-07-31T10:55:03.360Z,100901.84
2022-07-31T10:57:32.780Z,100902.66
2022-07-31T11:00:11.978Z,100896.47
2022-07-31T11:02:40.474Z,100898.13
2022-07-31T11:05:13.377Z,100890.34
2022-07-31T11:07:45.882Z,100887.66
2022-07-31T11:10:17.097Z,100893.75
2022-07-31T11:12:45.934Z,100887.34
2022-07-31T11:15:24.754Z,100890.06
2022-07-31T11:18:25.196Z,100888.22
2022-07-31T11:20:46.792Z,100879.59
2022-07-31T11:23:17.764Z,100881.97
2022-07-31T11:25:47.311Z,100883.13
2022-07-31T11:28:19.151Z,100876.59
2022-07-31T11:30:55.187Z,100873.88
2022-07-31T11:33:41.691Z,100871.19
2022-07-31T11:36:12.492Z,100874.91
2022-07-31T11:38:44.738Z,100871.19
2022-07-31T11:41:15.462Z,100862.72
2022-07-31T11:43:48.286Z,100853.34
2022-07-31T11:46:25.058Z,100864.13
2022-07-31T11:48:53.649Z,100864.13
2022-07-31T11:51:22.070Z,100851.63
2022-07-31T11:53:57.243Z,100856.03
2022-07-31T11:56:27.530Z,100859.72
2022-07-31T11:58:57.571Z,100845.41
2022-07-31T12:01:28.621Z,100858.41
2022-07-31T12:04:08.361Z,100852.72
2022-07-31T12:06:37.477Z,100853.38
2022-07-31T12:09:06.984Z,100861.47
2022-07-31T12:11:35.549Z,100859.47
2022-07-31T12:14:03.716Z,100854.09
2022-07-31T12:16:41.928Z,100845.31
2022-07-31T12:19:10.394Z,100841.63
2022-07-31T12:21:41.042Z,100845.00
2022-07-31T12:24:15.213Z,100836.91
2022-07-31T12:26:50.380Z,100829.84
2022-07-31T12:29:18.648Z,100830.84
2022-07-31T12:31:48.783Z,100825.47
2022-07-31T12:34:27.906Z,100771.91
2022-07-31T12:37:03.938Z,100824.75
2022-07-31T12:39:54.507Z,100824.75
2022-07-31T12:42:30.938Z,100812.31
2022-07-31T12:45:18.393Z,100813.28
2022-07-31T12:47:52.149Z,100820.69
2022-07-31T12:50:21.166Z,100817.16
2022-07-31T12:52:49.415Z,100816.13
2022-07-31T12:55:19.731Z,100809.22
2022-07-31T12:57:51.321Z,100812.63
2022-07-31T13:00:23.101Z,100817.00
2022-07-31T13:02:51.573Z,100811.59
2022-07-31T13:05:19.632Z,100799.97
2022-07-31T13:07:47.649Z,100809.91
2022-07-31T13:10:22.206Z,100807.06
2022-07-31T13:12:55.091Z,100795.66
2022-07-31T13:15:30.101Z,100802.50
2022-07-31T13:17:59.408Z,100814.28
2022-07-31T13:20:27.597Z,100807.06
2022-07-31T13:22:56.031Z,100799.97
2022-07-31T13:25:23.962Z,100807.91
2022-07-31T13:27:53.803Z,100802.50
2022-07-31T13:30:22.230Z,100795.44
2022-07-31T13:32:50.513Z,100795.44
2022-07-31T13:35:27.763Z,100800.81
2022-07-31T13:37:57.119Z,100797.13
2022-07-31T13:40:39.434Z,100798.97
2022-07-31T13:43:14.160Z,100782.97
2022-07-31T13:45:42.449Z,100791.72
2022-07-31T13:48:10.825Z,100786.66
2022-07-31T13:50:40.054Z,100790.03
2022-07-31T13:53:08.392Z,100787.34
2022-07-31T13:55:36.635Z,100786.34
2022-07-31T13:58:05.113Z,100777.59
2022-07-31T14:00:34.605Z,100775.56
2022-07-31T14:03:02.621Z,100773.03
2022-07-31T14:05:37.922Z,100777.59
2022-07-31T14:08:32.946Z,100777.59
2022-07-31T14:10:58.627Z,100776.88
2022-07-31T14:13:26.858Z,100775.88
2022-07-31T14:15:56.389Z,100774.19
2022-07-31T14:18:24.819Z,100783.28
2022-07-31T14:20:54.465Z,100754.91
2022-07-31T14:23:27.816Z,100781.25
2022-07-31T14:26:04.041Z,100779.59
2022-07-31T14:28:32.666Z,100775.88
2022-07-31T14:31:03.531Z,100772.19
2022-07-31T14:33:31.692Z,100777.59
2022-07-31T14:36:00.031Z,100765.94
2022-07-31T14:38:28.226Z,100765.94
2022-07-31T14:40:56.836Z,100763.09
2022-07-31T14:43:25.094Z,100768.50
2022-07-31T14:45:53.195Z,100768.50
2022-07-31T14:48:23.027Z,100768.50
2022-07-31T14:50:51.218Z,100761.25
2022-07-31T14:53:19.168Z,100730.03
2022-07-31T14:55:47.398Z,100754.00
2022-07-31T14:58:15.386Z,100748.63
2022-07-31T15:00:43.430Z,100753.03
2022-07-31T15:03:11.422Z,100759.38
2022-07-31T15:06:41.467Z,100749.47
2022-07-31T15:08:29.942Z,100735.72
2022-07-31T15:11:00.347Z,100752.31
2022-07-31T15:13:29.597Z,100754.16
2022-07-31T15:15:58.738Z,100752.63
2022-07-31T15:18:26.627Z,100748.63
2022-07-31T15:20:56.044Z,100753.03
2022-07-31T15:23:24.040Z,100754.00
2022-07-31T15:25:52.086Z,100754.00
2022-07-31T15:28:20.048Z,100748.63
2022-07-31T15:30:48.008Z,100742.41
2022-07-31T15:33:15.983Z,100744.25
2022-07-31T15:35:43.866Z,100735.94
2022-07-31T15:38:13.446Z,100742.56
2022-07-31T15:40:41.650Z,100736.47
2022-07-31T15:43:09.540Z,100739.00
2022-07-31T15:45:37.726Z,100730.75
2022-07-31T15:48:11.265Z,100737.16
2022-07-31T15:50:39.198Z,100724.53
2022-07-31T15:53:07.110Z,100723.69
2022-07-31T15:55:36.631Z,100706.75
2022-07-31T15:58:04.883Z,100714.59
2022-07-31T16:00:33.202Z,100719.97
2022-07-31T16:03:02.091Z,100711.19
2022-07-31T16:05:36.512Z,100709.22
2022-07-31T16:08:30.363Z,100711.03
2022-07-31T16:10:59.851Z,100700.44
2022-07-31T16:13:27.790Z,100700.44
2022-07-31T16:15:56.004Z,100707.84
2022-07-31T16:18:24.133Z,100698.75
2022-07-31T16:20:52.307Z,100689.00
2022-07-31T16:23:20.598Z,100685.28
2022-07-31T16:25:48.921Z,100691.38
2022-07-31T16:28:18.629Z,100685.97
2022-07-31T16:30:46.878Z,100677.03
2022-07-31T16:33:14.889Z,100681.41
2022-07-31T16:35:43.031Z,100681.41
2022-07-31T16:38:11.092Z,100660.31
2022-07-31T16:40:39.174Z,100677.19
2022-07-31T16:43:49.893Z,100675.19
2022-07-31T16:45:58.753Z,100680.59
2022-07-31T16:48:27.188Z,100672.50
2022-07-31T16:50:55.412Z,100667.78
2022-07-31T16:54:10.912Z,100666.09
2022-07-31T16:56:12.701Z,100657.31
2022-07-31T16:58:41.324Z,100659.69
2022-07-31T17:01:53.172Z,100656.19
2022-07-31T17:04:03.094Z,100657.00
2022-07-31T17:06:36.757Z,100657.84
2022-07-31T17:09:16.451Z,100653.31
2022-07-31T17:11:48.310Z,100653.31
2022-07-31T17:14:17.056Z,100650.63
2022-07-31T17:16:49.022Z,100644.53
2022-07-31T17:19:42.363Z,100649.94
2022-07-31T17:22:07.310Z,100643.53
2022-07-31T17:24:37.609Z,100655.31
2022-07-31T17:27:07.361Z,100649.94
2022-07-31T17:29:36.126Z,100646.22
2022-07-31T17:32:06.752Z,100649.94
2022-07-31T17:34:35.572Z,100640.81
2022-07-31T17:37:04.343Z,100638.13
2022-07-31T17:39:32.746Z,100639.16
2022-07-31T17:42:01.018Z,100630.06
2022-07-31T17:44:29.192Z,100634.63
2022-07-31T17:46:58.313Z,100622.97
2022-07-31T17:49:29.120Z,100626.53
2022-07-31T17:51:59.626Z,100622.97
2022-07-31T17:54:29.289Z,100609.47
2022-07-31T17:56:57.664Z,100626.53
2022-07-31T17:59:26.035Z,100619.28
2022-07-31T18:01:59.946Z,100621.97
2022-07-31T18:04:30.570Z,100616.56
2022-07-31T18:06:59.273Z,100628.38
2022-07-31T18:09:28.206Z,100630.06
2022-07-31T18:11:56.838Z,100593.63
2022-07-31T18:14:25.346Z,100619.28
2022-07-31T18:16:54.714Z,100580.44
2022-07-31T18:19:23.260Z,100608.81
2022-07-31T18:21:53.474Z,100615.59
2022-07-31T18:24:22.016Z,100613.06
2022-07-31T18:26:52.042Z,100604.81
2022-07-31T18:29:20.353Z,100607.13
2022-07-31T18:31:48.873Z,100603.09
2022-07-31T18:34:17.524Z,100619.28
2022-07-31T18:36:45.915Z,100608.50
2022-07-31T18:39:16.095Z,100603.09
2022-07-31T18:41:48.619Z,100612.03
2022-07-31T18:44:17.643Z,100615.59
2022-07-31T18:46:45.933Z,100613.88
2022-07-31T18:51:02.347Z,100610.19
2022-07-31T18:52:03.208Z,100598.72
2022-07-31T18:54:32.792Z,100606.81
2022-07-31T18:57:01.204Z,100602.44
2022-07-31T18:59:29.149Z,100606.81
2022-07-31T19:01:57.434Z,100601.44
2022-07-31T19:04:25.838Z,100606.81
2022-07-31T19:06:54.717Z,100601.44
2022-07-31T19:09:25.049Z,100596.03
2022-07-31T19:12:01.785Z,100596.91
2022-07-31T19:14:34.571Z,100596.03
2022-07-31T19:17:02.621Z,100594.84
2022-07-31T19:19:42.572Z,100596.72
2022-07-31T19:22:20.460Z,100597.56
2022-07-31T19:24:49.910Z,100601.09
2022-07-31T19:27:19.929Z,100601.09
2022-07-31T19:29:48.489Z,100588.66
2022-07-31T19:32:16.630Z,100595.72
2022-07-31T19:34:48.005Z,100588.81
2022-07-31T19:37:18.837Z,100601.09
2022-07-31T19:39:47.010Z,100598.41
2022-07-31T19:42:15.354Z,100593.03
2022-07-31T19:44:44.990Z,100585.25
2022-07-31T19:47:13.547Z,100595.72
2022-07-31T19:49:44.850Z,100590.31
2022-07-31T19:52:13.497Z,100586.63
2022-07-31T19:54:41.638Z,100584.94
2022-07-31T19:57:11.309Z,100585.78
2022-07-31T19:59:39.838Z,100584.09
2022-07-31T20:02:12.937Z,100575.00
2022-07-31T20:04:43.330Z,100582.25
2022-07-31T20:07:11.533Z,100567.41
2022-07-31T20:09:39.791Z,100574.16
2022-07-31T20:12:09.389Z,100568.78
2022-07-31T20:14:37.624Z,100560.31
2022-07-31T20:17:06.110Z,100567.09
2022-07-31T20:19:36.033Z,100561.69
2022-07-31T20:22:24.081Z,100558.31
2022-07-31T20:24:54.210Z,100567.09
2022-07-31T20:27:22.551Z,100560.00
2022-07-31T20:29:50.769Z,100553.78
2022-07-31T20:32:18.755Z,100551.09
2022-07-31T20:34:51.121Z,100550.94
2022-07-31T20:37:19.208Z,100555.47
2022-07-31T20:39:47.296Z,100549.22
2022-07-31T20:42:15.374Z,100553.94
2022-07-31T20:44:44.767Z,100551.25
2022-07-31T20:47:14.763Z,100539.09
2022-07-31T20:49:42.792Z,100553.94
2022-07-31T20:52:12.185Z,100545.88
2022-07-31T20:54:40.514Z,100551.25
2022-07-31T20:57:09.008Z,100552.94
2022-07-31T20:59:37.171Z,100552.94
2022-07-31T21:02:05.787Z,100548.56
2022-07-31T21:04:33.934Z,100548.56
2022-07-31T21:07:02.178Z,100547.53
2022-07-31T21:09:32.826Z,100551.25
2022-07-31T21:12:02.989Z,100542.16
2022-07-31T21:14:31.393Z,100543.16
2022-07-31T21:16:59.509Z,100553.94
2022-07-31T21:19:27.638Z,100539.78
2022-07-31T21:21:56.228Z,100549.22
2022-07-31T21:24:25.201Z,100520.88
2022-07-31T21:27:00.077Z,100550.94
2022-07-31T21:29:28.827Z,100535.09
2022-07-31T21:31:57.631Z,100542.16
2022-07-31T21:34:26.359Z,100546.53
2022-07-31T21:36:55.179Z,100536.75
2022-07-31T21:39:26.020Z,100539.47
2022-07-31T21:41:56.052Z,100542.16
2022-07-31T21:44:25.405Z,100547.53
2022-07-31T21:46:56.856Z,100541.13
2022-07-31T21:49:27.023Z,100538.44
2022-07-31T21:51:55.666Z,100538.44
2022-07-31T21:54:24.207Z,100538.44
2022-07-31T21:56:52.367Z,100543.81
2022-07-31T21:59:22.259Z,100545.53
2022-07-31T22:01:57.993Z,100540.47
2022-07-31T22:04:56.415Z,100534.75
2022-07-31T22:07:32.651Z,100533.06
2022-07-31T22:10:00.878Z,100539.28
2022-07-31T22:12:29.005Z,100541.13
2022-07-31T22:14:58.801Z,100542.16
2022-07-31T22:17:26.983Z,100536.75
2022-07-31T22:19:58.961Z,100542.16
2022-07-31T22:22:27.713Z,100533.06
2022-07-31T22:24:56.503Z,100542.16
2022-07-31T22:27:42.812Z,100540.47
2022-07-31T22:30:14.131Z,100535.09
2022-07-31T22:32:42.388Z,100544.16
2022-07-31T22:35:12.947Z,100541.47
2022-07-31T22:37:42.901Z,100541.47
2022-07-31T22:40:11.829Z,100524.09
2022-07-31T22:42:40.098Z,100538.75
2022-07-31T22:45:09.614Z,100529.69
2022-07-31T22:47:39.889Z,100525.94
2022-07-31T22:50:10.004Z,100531.69
2022-07-31T22:52:39.043Z,100531.69
2022-07-31T22:55:07.972Z,100535.25
2022-07-31T22:57:36.158Z,100522.94
2022-07-31T23:00:05.987Z,100531.69
2022-07-31T23:02:34.342Z,100531.69
2022-07-31T23:05:04.031Z,100531.69
2022-07-31T23:07:32.253Z,100526.31
2022-07-31T23:10:00.569Z,100523.63
2022-07-31T23:12:29.529Z,100526.31
2022-07-31T23:14:57.793Z,100521.78
2022-07-31T23:17:26.193Z,100516.38
2022-07-31T23:19:54.815Z,100518.22
2022-07-31T23:22:33.940Z,100517.22
2022-07-31T23:25:02.517Z,100520.06
2022-07-31T23:27:30.838Z,100524.63
2022-07-31T23:29:59.078Z,100522.94
2022-07-31T23:32:27.091Z,100519.25
2022-07-31T23:34:55.207Z,100519.25
2022-07-31T23:37:24.674Z,100519.25
2022-07-31T23:39:52.885Z,100497.97
2022-07-31T23:42:39.394Z,100506.75
2022-07-31T23:45:11.254Z,100504.06
2022-07-31T23:47:46.084Z,100503.09
2022-07-31T23:50:16.039Z,100510.47
2022-07-31T23:52:45.996Z,100499.69
2022-07-31T23:55:14.146Z,100508.47
2022-07-31T23:57:42.535Z,100508.47
